首页
METAR-TAF:

METAR-TAF

机场 :

阿拉木图国际机场

阿拉木圖, 哈萨克斯坦

纬度: 43-14N, 经度: 076-56E, 海拔: 847米

当前天气观测

该预报发布于30分钟前的15:00 UTC
风速6节,风向
温度 30°C
湿度 31%
气压 1010 hPa
能见度10公里或以上
多云层高于5000英尺, 积雨云.
多云层高于10000英尺

METAR: UAAA 161500Z 18003MPS 9999 BKN050CB BKN100 30/11 Q1010 R23L/CLRD65 TEMPO VRB15MPS 3000 TSRA SQ

时间: 21:30 (15:30 UTC)

预报

该预报发布于4小时和30分钟前的11:00 UTC
预报有效从16日的 12点(UTC)到 17日的 12点(UTC)
风速10节,风向西北
能见度10公里或以上
多云层高于4000英尺, 积雨云.
多云层高于10000英尺
短暂存在
从 16日的 12点(UTC)到 16日的 18点(UTC)
风速19节,风向西转西南,有时为39节阵风
能見度: 3000
雷暴, 雨, 高吹尘
短暂存在
从 16日的 18点(UTC)到 17日的 03点(UTC)
能見度: 3000
多云层高于3000英尺, 积雨云.
阴天层高于10000英尺
小阵雨, 轻雾
几率 40% :
短暂存在
从 17日的 08点(UTC)到 17日的 12点(UTC)
雷暴

TAF: UAAA 161100Z 1612/1712 32005MPS 9999 BKN040CB BKN100 TX33/1709Z TN17/1701Z TEMPO 1612/1618 24010G20MPS 3000 TSRA BLDU TEMPO 1618/1703 3000 -SHRA BR BKN030CB OVC100 PROB40 TEMPO 1708/1712 TS

超过4000个机场的气象观测和天气预报(METAR&TAF报告)。

可查询的气象台以黄色和红色小点在地图上表示。

将鼠标移到小点上方,可查看气象台名称。

然后点击查看天气观测和预报。

如需切换地图:点击带黑十字的绿色按钮放大地图;点击带横线的绿色按钮缩小地图;或者点击绿色箭头查看邻近地区的地图。


METAR-TAF: